sensor_id;sensor_type;location;lat;lon;timestamp;temperature;humidity
21648;DHT22;10985;54.182;7.890;2023-07-02T00:02:20;17.00;99.90
21648;DHT22;10985;54.182;7.890;2023-07-02T00:04:46;17.00;99.90
21648;DHT22;10985;54.182;7.890;2023-07-02T00:07:12;17.00;99.90
21648;DHT22;10985;54.182;7.890;2023-07-02T00:09:37;17.00;99.90
21648;DHT22;10985;54.182;7.890;2023-07-02T00:14:31;17.00;99.90
21648;DHT22;10985;54.182;7.890;2023-07-02T00:16:57;17.00;99.90
21648;DHT22;10985;54.182;7.890;2023-07-02T00:19:23;16.90;99.90
21648;DHT22;10985;54.182;7.890;2023-07-02T00:21:48;16.90;99.90
21648;DHT22;10985;54.182;7.890;2023-07-02T00:24:14;16.90;99.90
21648;DHT22;10985;54.182;7.890;2023-07-02T00:26:41;16.80;99.90
21648;DHT22;10985;54.182;7.890;2023-07-02T00:29:08;16.90;99.90
21648;DHT22;10985;54.182;7.890;2023-07-02T00:31:35;16.90;99.90
21648;DHT22;10985;54.182;7.890;2023-07-02T00:34:01;16.90;99.90
21648;DHT22;10985;54.182;7.890;2023-07-02T00:36:27;16.90;99.90
21648;DHT22;10985;54.182;7.890;2023-07-02T00:38:53;16.90;99.90
21648;DHT22;10985;54.182;7.890;2023-07-02T00:41:18;16.90;99.90
21648;DHT22;10985;54.182;7.890;2023-07-02T00:43:44;16.90;99.90
21648;DHT22;10985;54.182;7.890;2023-07-02T00:46:14;16.90;99.90
21648;DHT22;10985;54.182;7.890;2023-07-02T00:48:46;16.90;99.90
21648;DHT22;10985;54.182;7.890;2023-07-02T00:51:15;16.90;99.90
21648;DHT22;10985;54.182;7.890;2023-07-02T00:53:42;16.90;99.90
21648;DHT22;10985;54.182;7.890;2023-07-02T00:56:08;16.90;99.90
21648;DHT22;10985;54.182;7.890;2023-07-02T00:58:37;16.80;99.90
21648;DHT22;10985;54.182;7.890;2023-07-02T01:01:04;16.80;99.90
21648;DHT22;10985;54.182;7.890;2023-07-02T01:03:29;16.90;99.90
21648;DHT22;10985;54.182;7.890;2023-07-02T01:06:01;16.90;99.90
21648;DHT22;10985;54.182;7.890;2023-07-02T01:08:29;16.90;99.90
21648;DHT22;10985;54.182;7.890;2023-07-02T01:10:54;16.90;99.90
21648;DHT22;10985;54.182;7.890;2023-07-02T01:13:21;16.90;99.90
21648;DHT22;10985;54.182;7.890;2023-07-02T01:15:48;16.90;99.90
21648;DHT22;10985;54.182;7.890;2023-07-02T01:18:14;16.80;99.90
21648;DHT22;10985;54.182;7.890;2023-07-02T01:20:42;16.80;99.90
21648;DHT22;10985;54.182;7.890;2023-07-02T01:23:08;16.90;99.90
21648;DHT22;10985;54.182;7.890;2023-07-02T01:25:34;16.80;99.90
21648;DHT22;10985;54.182;7.890;2023-07-02T01:28:02;16.80;99.90
21648;DHT22;10985;54.182;7.890;2023-07-02T01:30:28;16.70;99.90
21648;DHT22;10985;54.182;7.890;2023-07-02T01:32:53;16.70;99.90
21648;DHT22;10985;54.182;7.890;2023-07-02T01:35:19;16.70;99.90
21648;DHT22;10985;54.182;7.890;2023-07-02T01:37:45;16.70;99.90
21648;DHT22;10985;54.182;7.890;2023-07-02T01:40:10;16.70;99.90
21648;DHT22;10985;54.182;7.890;2023-07-02T01:42:36;16.70;99.90
21648;DHT22;10985;54.182;7.890;2023-07-02T01:45:02;16.70;99.90
21648;DHT22;10985;54.182;7.890;2023-07-02T01:47:28;16.70;99.90
21648;DHT22;10985;54.182;7.890;2023-07-02T01:49:54;16.60;99.90
21648;DHT22;10985;54.182;7.890;2023-07-02T01:52:19;16.60;99.90
21648;DHT22;10985;54.182;7.890;2023-07-02T01:54:45;16.60;99.90
21648;DHT22;10985;54.182;7.890;2023-07-02T01:57:11;16.60;99.90
21648;DHT22;10985;54.182;7.890;2023-07-02T01:59:37;16.60;99.90
21648;DHT22;10985;54.182;7.890;2023-07-02T02:02:02;16.60;99.90
21648;DHT22;10985;54.182;7.890;2023-07-02T02:04:28;16.60;99.90
21648;DHT22;10985;54.182;7.890;2023-07-02T02:06:53;16.50;99.90
21648;DHT22;10985;54.182;7.890;2023-07-02T02:09:19;16.50;99.90
21648;DHT22;10985;54.182;7.890;2023-07-02T02:11:48;16.60;99.90
21648;DHT22;10985;54.182;7.890;2023-07-02T02:14:14;16.50;99.90
21648;DHT22;10985;54.182;7.890;2023-07-02T02:16:39;16.50;99.90
21648;DHT22;10985;54.182;7.890;2023-07-02T02:19:05;16.50;99.90
21648;DHT22;10985;54.182;7.890;2023-07-02T02:21:30;16.60;99.90
21648;DHT22;10985;54.182;7.890;2023-07-02T02:23:56;16.60;99.90
21648;DHT22;10985;54.182;7.890;2023-07-02T02:26:22;16.60;99.90
21648;DHT22;10985;54.182;7.890;2023-07-02T02:28:48;16.60;99.90
21648;DHT22;10985;54.182;7.890;2023-07-02T02:31:15;16.60;99.90
21648;DHT22;10985;54.182;7.890;2023-07-02T02:33:40;16.60;99.90
21648;DHT22;10985;54.182;7.890;2023-07-02T02:36:06;16.60;99.90
21648;DHT22;10985;54.182;7.890;2023-07-02T02:38:32;16.60;99.90
21648;DHT22;10985;54.182;7.890;2023-07-02T02:40:59;16.60;99.90
21648;DHT22;10985;54.182;7.890;2023-07-02T02:43:24;16.60;99.90
21648;DHT22;10985;54.182;7.890;2023-07-02T02:45:49;16.70;99.90
21648;DHT22;10985;54.182;7.890;2023-07-02T02:48:15;16.70;99.90
21648;DHT22;10985;54.182;7.890;2023-07-02T02:50:40;16.70;99.90
21648;DHT22;10985;54.182;7.890;2023-07-02T02:53:09;16.60;99.90
21648;DHT22;10985;54.182;7.890;2023-07-02T02:55:37;16.60;99.90
21648;DHT22;10985;54.182;7.890;2023-07-02T02:58:03;16.50;99.90
21648;DHT22;10985;54.182;7.890;2023-07-02T03:00:29;16.50;99.90
21648;DHT22;10985;54.182;7.890;2023-07-02T03:02:55;16.50;99.90
21648;DHT22;10985;54.182;7.890;2023-07-02T03:05:21;16.50;99.90
21648;DHT22;10985;54.182;7.890;2023-07-02T03:07:47;16.40;99.90
21648;DHT22;10985;54.182;7.890;2023-07-02T03:10:12;16.50;99.90
21648;DHT22;10985;54.182;7.890;2023-07-02T03:12:38;16.50;99.90
21648;DHT22;10985;54.182;7.890;2023-07-02T03:15:03;16.50;99.90
21648;DHT22;10985;54.182;7.890;2023-07-02T03:17:29;16.40;99.90
21648;DHT22;10985;54.182;7.890;2023-07-02T03:19:55;16.20;99.90
21648;DHT22;10985;54.182;7.890;2023-07-02T03:22:20;16.10;99.90
21648;DHT22;10985;54.182;7.890;2023-07-02T03:24:46;16.00;99.90
21648;DHT22;10985;54.182;7.890;2023-07-02T03:27:11;16.00;99.90
21648;DHT22;10985;54.182;7.890;2023-07-02T03:29:37;15.90;99.90
21648;DHT22;10985;54.182;7.890;2023-07-02T03:32:05;15.90;99.90
21648;DHT22;10985;54.182;7.890;2023-07-02T03:34:31;15.90;99.90
21648;DHT22;10985;54.182;7.890;2023-07-02T03:36:56;15.80;99.90
21648;DHT22;10985;54.182;7.890;2023-07-02T03:39:22;15.80;99.90
21648;DHT22;10985;54.182;7.890;2023-07-02T03:41:47;15.90;99.90
21648;DHT22;10985;54.182;7.890;2023-07-02T03:44:13;15.80;99.90
21648;DHT22;10985;54.182;7.890;2023-07-02T03:46:38;15.90;99.90
21648;DHT22;10985;54.182;7.890;2023-07-02T03:49:04;15.80;99.90
21648;DHT22;10985;54.182;7.890;2023-07-02T03:51:30;15.80;99.90
21648;DHT22;10985;54.182;7.890;2023-07-02T03:53:57;15.80;99.90
21648;DHT22;10985;54.182;7.890;2023-07-02T03:56:23;15.90;99.90
21648;DHT22;10985;54.182;7.890;2023-07-02T03:58:48;15.90;99.90
21648;DHT22;10985;54.182;7.890;2023-07-02T04:01:14;15.90;99.90
21648;DHT22;10985;54.182;7.890;2023-07-02T04:03:42;16.00;99.90
21648;DHT22;10985;54.182;7.890;2023-07-02T04:06:07;16.00;99.90
21648;DHT22;10985;54.182;7.890;2023-07-02T04:08:33;16.00;99.90
21648;DHT22;10985;54.182;7.890;2023-07-02T04:10:59;16.00;99.90
21648;DHT22;10985;54.182;7.890;2023-07-02T04:13:25;16.10;99.90
21648;DHT22;10985;54.182;7.890;2023-07-02T04:15:50;16.10;99.90
21648;DHT22;10985;54.182;7.890;2023-07-02T04:18:16;16.10;99.90
21648;DHT22;10985;54.182;7.890;2023-07-02T04:20:41;16.10;99.90
21648;DHT22;10985;54.182;7.890;2023-07-02T04:23:07;16.10;99.90
21648;DHT22;10985;54.182;7.890;2023-07-02T04:25:33;16.10;99.90
21648;DHT22;10985;54.182;7.890;2023-07-02T04:27:58;16.20;99.90
21648;DHT22;10985;54.182;7.890;2023-07-02T04:30:25;16.10;99.90
21648;DHT22;10985;54.182;7.890;2023-07-02T04:32:51;16.20;99.90
21648;DHT22;10985;54.182;7.890;2023-07-02T04:35:17;16.20;99.90
21648;DHT22;10985;54.182;7.890;2023-07-02T04:37:43;16.30;99.90
21648;DHT22;10985;54.182;7.890;2023-07-02T04:40:09;16.30;99.90
21648;DHT22;10985;54.182;7.890;2023-07-02T04:42:36;16.30;99.90
21648;DHT22;10985;54.182;7.890;2023-07-02T04:45:04;16.30;99.90
21648;DHT22;10985;54.182;7.890;2023-07-02T04:47:30;16.30;99.90
21648;DHT22;10985;54.182;7.890;2023-07-02T04:49:56;16.40;99.90
21648;DHT22;10985;54.182;7.890;2023-07-02T04:52:21;16.40;99.90
21648;DHT22;10985;54.182;7.890;2023-07-02T04:54:47;16.40;99.90
21648;DHT22;10985;54.182;7.890;2023-07-02T04:57:12;16.50;99.90
21648;DHT22;10985;54.182;7.890;2023-07-02T04:59:41;16.60;99.90
21648;DHT22;10985;54.182;7.890;2023-07-02T05:02:06;16.60;99.90
21648;DHT22;10985;54.182;7.890;2023-07-02T05:04:32;16.60;99.90
21648;DHT22;10985;54.182;7.890;2023-07-02T05:06:57;16.60;99.90
21648;DHT22;10985;54.182;7.890;2023-07-02T05:09:22;16.60;99.90
21648;DHT22;10985;54.182;7.890;2023-07-02T05:11:48;16.60;99.90
21648;DHT22;10985;54.182;7.890;2023-07-02T05:14:13;16.60;99.90
21648;DHT22;10985;54.182;7.890;2023-07-02T05:16:39;16.60;99.90
21648;DHT22;10985;54.182;7.890;2023-07-02T05:19:04;16.60;99.90
21648;DHT22;10985;54.182;7.890;2023-07-02T05:21:30;16.60;99.90
21648;DHT22;10985;54.182;7.890;2023-07-02T05:23:55;16.70;99.90
21648;DHT22;10985;54.182;7.890;2023-07-02T05:26:21;16.70;99.90
21648;DHT22;10985;54.182;7.890;2023-07-02T05:28:46;16.70;99.90
21648;DHT22;10985;54.182;7.890;2023-07-02T05:31:13;16.70;99.90
21648;DHT22;10985;54.182;7.890;2023-07-02T05:33:39;16.70;99.90
21648;DHT22;10985;54.182;7.890;2023-07-02T05:36:04;16.70;99.90
21648;DHT22;10985;54.182;7.890;2023-07-02T05:38:30;16.80;99.90
21648;DHT22;10985;54.182;7.890;2023-07-02T05:40:55;16.80;99.90
21648;DHT22;10985;54.182;7.890;2023-07-02T05:43:21;16.90;99.90
21648;DHT22;10985;54.182;7.890;2023-07-02T05:45:46;17.00;99.90
21648;DHT22;10985;54.182;7.890;2023-07-02T05:48:12;17.20;99.90
21648;DHT22;10985;54.182;7.890;2023-07-02T05:50:37;17.30;99.90
21648;DHT22;10985;54.182;7.890;2023-07-02T05:53:03;17.40;99.90
21648;DHT22;10985;54.182;7.890;2023-07-02T05:55:28;17.50;99.90
21648;DHT22;10985;54.182;7.890;2023-07-02T05:57:54;17.70;99.90
21648;DHT22;10985;54.182;7.890;2023-07-02T06:00:20;17.80;99.90
21648;DHT22;10985;54.182;7.890;2023-07-02T06:02:48;17.80;99.90
21648;DHT22;10985;54.182;7.890;2023-07-02T06:05:13;17.90;99.90
21648;DHT22;10985;54.182;7.890;2023-07-02T06:07:39;18.00;99.90
21648;DHT22;10985;54.182;7.890;2023-07-02T06:10:04;18.10;99.90
21648;DHT22;10985;54.182;7.890;2023-07-02T06:12:30;18.20;99.90
21648;DHT22;10985;54.182;7.890;2023-07-02T06:14:55;18.20;99.90
21648;DHT22;10985;54.182;7.890;2023-07-02T06:17:21;18.20;99.90
21648;DHT22;10985;54.182;7.890;2023-07-02T06:19:48;18.20;99.90
21648;DHT22;10985;54.182;7.890;2023-07-02T06:22:13;18.20;99.90
21648;DHT22;10985;54.182;7.890;2023-07-02T06:24:39;18.10;99.90
21648;DHT22;10985;54.182;7.890;2023-07-02T06:27:04;18.00;99.90
21648;DHT22;10985;54.182;7.890;2023-07-02T06:29:30;17.90;99.90
21648;DHT22;10985;54.182;7.890;2023-07-02T06:31:55;17.90;99.90
21648;DHT22;10985;54.182;7.890;2023-07-02T06:34:21;17.80;99.90
21648;DHT22;10985;54.182;7.890;2023-07-02T06:36:48;17.60;99.90
21648;DHT22;10985;54.182;7.890;2023-07-02T06:39:13;17.50;99.90
21648;DHT22;10985;54.182;7.890;2023-07-02T06:41:39;17.30;99.90
21648;DHT22;10985;54.182;7.890;2023-07-02T06:44:04;17.10;99.90
21648;DHT22;10985;54.182;7.890;2023-07-02T06:46:30;17.00;99.90
21648;DHT22;10985;54.182;7.890;2023-07-02T06:48:56;17.00;99.90
21648;DHT22;10985;54.182;7.890;2023-07-02T06:51:22;16.90;99.90
21648;DHT22;10985;54.182;7.890;2023-07-02T06:53:48;16.80;99.90
21648;DHT22;10985;54.182;7.890;2023-07-02T06:56:14;16.80;99.90
21648;DHT22;10985;54.182;7.890;2023-07-02T06:58:42;16.80;99.90
21648;DHT22;10985;54.182;7.890;2023-07-02T07:01:07;16.80;99.90
21648;DHT22;10985;54.182;7.890;2023-07-02T07:03:34;16.80;99.90
21648;DHT22;10985;54.182;7.890;2023-07-02T07:05:59;16.90;99.90
21648;DHT22;10985;54.182;7.890;2023-07-02T07:08:25;16.90;99.90
21648;DHT22;10985;54.182;7.890;2023-07-02T07:10:51;16.90;99.90
21648;DHT22;10985;54.182;7.890;2023-07-02T07:13:16;16.90;99.90
21648;DHT22;10985;54.182;7.890;2023-07-02T07:15:42;17.00;99.90
21648;DHT22;10985;54.182;7.890;2023-07-02T07:18:09;17.10;99.90
21648;DHT22;10985;54.182;7.890;2023-07-02T07:20:35;17.10;99.90
21648;DHT22;10985;54.182;7.890;2023-07-02T07:23:02;17.20;99.90
21648;DHT22;10985;54.182;7.890;2023-07-02T07:25:28;17.40;99.90
21648;DHT22;10985;54.182;7.890;2023-07-02T07:27:53;17.60;99.90
21648;DHT22;10985;54.182;7.890;2023-07-02T07:30:20;17.80;99.90
21648;DHT22;10985;54.182;7.890;2023-07-02T07:32:49;17.80;99.90
21648;DHT22;10985;54.182;7.890;2023-07-02T07:35:15;17.80;99.90
21648;DHT22;10985;54.182;7.890;2023-07-02T07:37:40;17.90;99.90
21648;DHT22;10985;54.182;7.890;2023-07-02T07:40:06;17.90;99.90
21648;DHT22;10985;54.182;7.890;2023-07-02T07:42:32;17.80;99.90
21648;DHT22;10985;54.182;7.890;2023-07-02T07:44:58;17.80;99.90
21648;DHT22;10985;54.182;7.890;2023-07-02T07:47:23;17.80;99.90
21648;DHT22;10985;54.182;7.890;2023-07-02T07:49:49;17.80;99.90
21648;DHT22;10985;54.182;7.890;2023-07-02T07:52:14;17.80;99.90
21648;DHT22;10985;54.182;7.890;2023-07-02T07:54:40;17.80;99.90
21648;DHT22;10985;54.182;7.890;2023-07-02T07:57:06;17.80;99.90
21648;DHT22;10985;54.182;7.890;2023-07-02T07:59:32;17.80;99.90
21648;DHT22;10985;54.182;7.890;2023-07-02T08:01:57;17.80;99.90
21648;DHT22;10985;54.182;7.890;2023-07-02T08:04:23;17.90;99.90
21648;DHT22;10985;54.182;7.890;2023-07-02T08:06:49;17.90;99.90
21648;DHT22;10985;54.182;7.890;2023-07-02T08:09:14;17.90;99.90
21648;DHT22;10985;54.182;7.890;2023-07-02T08:11:40;17.90;99.90
21648;DHT22;10985;54.182;7.890;2023-07-02T08:14:05;17.90;99.90
21648;DHT22;10985;54.182;7.890;2023-07-02T08:16:31;17.90;99.90
21648;DHT22;10985;54.182;7.890;2023-07-02T08:18:56;17.90;99.90
21648;DHT22;10985;54.182;7.890;2023-07-02T08:21:22;17.90;99.90
21648;DHT22;10985;54.182;7.890;2023-07-02T08:23:47;17.90;99.90
21648;DHT22;10985;54.182;7.890;2023-07-02T08:26:13;18.00;99.90
21648;DHT22;10985;54.182;7.890;2023-07-02T08:28:39;18.00;99.90
21648;DHT22;10985;54.182;7.890;2023-07-02T08:31:05;17.90;99.90
21648;DHT22;10985;54.182;7.890;2023-07-02T08:33:31;17.70;99.90
21648;DHT22;10985;54.182;7.890;2023-07-02T08:35:56;17.70;99.90
21648;DHT22;10985;54.182;7.890;2023-07-02T08:38:23;17.50;99.90
21648;DHT22;10985;54.182;7.890;2023-07-02T08:40:52;17.40;99.90
21648;DHT22;10985;54.182;7.890;2023-07-02T08:43:17;17.20;99.90
21648;DHT22;10985;54.182;7.890;2023-07-02T08:45:43;17.10;99.90
21648;DHT22;10985;54.182;7.890;2023-07-02T08:48:10;17.10;99.90
21648;DHT22;10985;54.182;7.890;2023-07-02T08:50:36;17.20;99.90
21648;DHT22;10985;54.182;7.890;2023-07-02T08:53:02;17.30;99.90
21648;DHT22;10985;54.182;7.890;2023-07-02T08:55:27;17.40;99.90
21648;DHT22;10985;54.182;7.890;2023-07-02T08:57:56;17.50;99.90
21648;DHT22;10985;54.182;7.890;2023-07-02T09:00:24;17.50;99.90
21648;DHT22;10985;54.182;7.890;2023-07-02T09:02:50;17.50;99.90
21648;DHT22;10985;54.182;7.890;2023-07-02T09:05:15;17.40;99.90
21648;DHT22;10985;54.182;7.890;2023-07-02T09:07:48;17.30;99.90
21648;DHT22;10985;54.182;7.890;2023-07-02T09:10:30;17.10;99.90
21648;DHT22;10985;54.182;7.890;2023-07-02T09:13:04;17.10;99.90
21648;DHT22;10985;54.182;7.890;2023-07-02T09:15:38;17.20;99.90
21648;DHT22;10985;54.182;7.890;2023-07-02T09:18:18;17.20;99.90
21648;DHT22;10985;54.182;7.890;2023-07-02T09:20:44;17.50;99.90
21648;DHT22;10985;54.182;7.890;2023-07-02T09:23:10;17.80;99.90
21648;DHT22;10985;54.182;7.890;2023-07-02T09:25:39;18.40;99.90
21648;DHT22;10985;54.182;7.890;2023-07-02T09:28:19;19.00;99.90
21648;DHT22;10985;54.182;7.890;2023-07-02T09:30:57;19.60;99.90
21648;DHT22;10985;54.182;7.890;2023-07-02T09:33:24;20.20;99.90
21648;DHT22;10985;54.182;7.890;2023-07-02T09:35:50;20.60;99.90
21648;DHT22;10985;54.182;7.890;2023-07-02T09:38:18;21.00;99.90
21648;DHT22;10985;54.182;7.890;2023-07-02T09:40:46;21.40;99.90
21648;DHT22;10985;54.182;7.890;2023-07-02T09:43:14;21.70;99.90
21648;DHT22;10985;54.182;7.890;2023-07-02T09:45:46;21.90;99.90
21648;DHT22;10985;54.182;7.890;2023-07-02T09:48:16;21.70;99.90
21648;DHT22;10985;54.182;7.890;2023-07-02T09:50:45;22.00;99.90
21648;DHT22;10985;54.182;7.890;2023-07-02T09:53:12;22.00;99.90
21648;DHT22;10985;54.182;7.890;2023-07-02T09:55:39;21.90;99.90
21648;DHT22;10985;54.182;7.890;2023-07-02T09:58:05;21.80;99.90
21648;DHT22;10985;54.182;7.890;2023-07-02T10:00:31;22.00;99.90
21648;DHT22;10985;54.182;7.890;2023-07-02T10:02:57;22.20;99.90
21648;DHT22;10985;54.182;7.890;2023-07-02T10:05:35;22.40;99.90
21648;DHT22;10985;54.182;7.890;2023-07-02T10:08:12;22.60;99.90
21648;DHT22;10985;54.182;7.890;2023-07-02T10:10:48;22.80;99.90
21648;DHT22;10985;54.182;7.890;2023-07-02T10:13:13;23.20;99.90
21648;DHT22;10985;54.182;7.890;2023-07-02T10:15:44;23.00;99.90
21648;DHT22;10985;54.182;7.890;2023-07-02T10:18:26;22.70;99.90
21648;DHT22;10985;54.182;7.890;2023-07-02T10:20:51;22.90;99.90
21648;DHT22;10985;54.182;7.890;2023-07-02T10:23:17;23.10;99.90
21648;DHT22;10985;54.182;7.890;2023-07-02T10:25:42;23.40;99.90
21648;DHT22;10985;54.182;7.890;2023-07-02T10:28:19;23.30;99.90
21648;DHT22;10985;54.182;7.890;2023-07-02T10:30:45;23.20;99.90
21648;DHT22;10985;54.182;7.890;2023-07-02T10:33:17;23.20;99.90
21648;DHT22;10985;54.182;7.890;2023-07-02T10:35:45;23.10;99.90
21648;DHT22;10985;54.182;7.890;2023-07-02T10:38:23;23.40;99.90
21648;DHT22;10985;54.182;7.890;2023-07-02T10:40:59;23.80;99.90
21648;DHT22;10985;54.182;7.890;2023-07-02T10:43:30;24.00;99.90
21648;DHT22;10985;54.182;7.890;2023-07-02T10:46:00;24.30;99.90
21648;DHT22;10985;54.182;7.890;2023-07-02T10:48:26;24.70;99.90
21648;DHT22;10985;54.182;7.890;2023-07-02T10:50:51;25.00;99.90
21648;DHT22;10985;54.182;7.890;2023-07-02T10:53:18;25.30;99.90
21648;DHT22;10985;54.182;7.890;2023-07-02T10:55:44;25.50;99.90
21648;DHT22;10985;54.182;7.890;2023-07-02T10:58:11;25.80;99.90
21648;DHT22;10985;54.182;7.890;2023-07-02T11:00:57;26.00;99.90
21648;DHT22;10985;54.182;7.890;2023-07-02T11:03:24;26.30;99.90
21648;DHT22;10985;54.182;7.890;2023-07-02T11:05:51;26.30;99.90
21648;DHT22;10985;54.182;7.890;2023-07-02T11:08:17;26.40;99.90
21648;DHT22;10985;54.182;7.890;2023-07-02T11:10:43;26.80;99.90
21648;DHT22;10985;54.182;7.890;2023-07-02T11:13:13;27.20;99.90
21648;DHT22;10985;54.182;7.890;2023-07-02T11:15:39;27.40;99.90
21648;DHT22;10985;54.182;7.890;2023-07-02T11:18:13;27.60;99.90
21648;DHT22;10985;54.182;7.890;2023-07-02T11:20:40;27.70;99.90
21648;DHT22;10985;54.182;7.890;2023-07-02T11:23:25;27.90;99.90
21648;DHT22;10985;54.182;7.890;2023-07-02T11:26:09;28.10;99.90
21648;DHT22;10985;54.182;7.890;2023-07-02T11:28:34;28.50;99.90
21648;DHT22;10985;54.182;7.890;2023-07-02T11:31:00;28.40;99.90
21648;DHT22;10985;54.182;7.890;2023-07-02T11:33:37;28.40;99.90
21648;DHT22;10985;54.182;7.890;2023-07-02T11:36:04;28.60;99.90
21648;DHT22;10985;54.182;7.890;2023-07-02T11:38:29;28.80;99.90
21648;DHT22;10985;54.182;7.890;2023-07-02T11:40:55;28.80;99.90
21648;DHT22;10985;54.182;7.890;2023-07-02T11:43:20;28.70;99.90
21648;DHT22;10985;54.182;7.890;2023-07-02T11:45:46;28.80;99.90
21648;DHT22;10985;54.182;7.890;2023-07-02T11:48:11;28.60;99.90
21648;DHT22;10985;54.182;7.890;2023-07-02T11:50:38;28.60;99.90
21648;DHT22;10985;54.182;7.890;2023-07-02T11:53:03;28.60;99.90
21648;DHT22;10985;54.182;7.890;2023-07-02T11:55:29;28.30;99.90
21648;DHT22;10985;54.182;7.890;2023-07-02T11:57:54;28.40;99.90
21648;DHT22;10985;54.182;7.890;2023-07-02T12:00:20;28.20;99.90
21648;DHT22;10985;54.182;7.890;2023-07-02T12:02:46;28.40;99.90
21648;DHT22;10985;54.182;7.890;2023-07-02T12:05:11;28.20;99.90
21648;DHT22;10985;54.182;7.890;2023-07-02T12:07:37;28.20;99.90
21648;DHT22;10985;54.182;7.890;2023-07-02T12:10:02;27.90;99.90
21648;DHT22;10985;54.182;7.890;2023-07-02T12:12:28;27.20;99.90
21648;DHT22;10985;54.182;7.890;2023-07-02T12:14:53;26.90;99.90
21648;DHT22;10985;54.182;7.890;2023-07-02T12:17:19;26.50;99.90
21648;DHT22;10985;54.182;7.890;2023-07-02T12:19:44;26.00;99.90
21648;DHT22;10985;54.182;7.890;2023-07-02T12:22:10;25.30;99.90
21648;DHT22;10985;54.182;7.890;2023-07-02T12:24:35;24.90;99.90
21648;DHT22;10985;54.182;7.890;2023-07-02T12:27:02;24.60;99.90
21648;DHT22;10985;54.182;7.890;2023-07-02T12:29:27;24.20;99.90
21648;DHT22;10985;54.182;7.890;2023-07-02T12:31:53;23.80;99.90
21648;DHT22;10985;54.182;7.890;2023-07-02T12:34:19;23.40;99.90
21648;DHT22;10985;54.182;7.890;2023-07-02T12:36:44;23.00;99.90
21648;DHT22;10985;54.182;7.890;2023-07-02T12:39:10;22.60;99.90
21648;DHT22;10985;54.182;7.890;2023-07-02T12:41:35;22.30;99.90
21648;DHT22;10985;54.182;7.890;2023-07-02T12:44:01;22.00;99.90
21648;DHT22;10985;54.182;7.890;2023-07-02T12:46:26;21.90;99.90
21648;DHT22;10985;54.182;7.890;2023-07-02T12:48:52;21.80;99.90
21648;DHT22;10985;54.182;7.890;2023-07-02T12:51:17;21.90;99.90
21648;DHT22;10985;54.182;7.890;2023-07-02T12:53:44;22.10;99.90
21648;DHT22;10985;54.182;7.890;2023-07-02T12:56:09;22.00;99.90
21648;DHT22;10985;54.182;7.890;2023-07-02T12:58:35;22.00;99.90
21648;DHT22;10985;54.182;7.890;2023-07-02T13:01:00;22.10;99.90
21648;DHT22;10985;54.182;7.890;2023-07-02T13:03:29;22.20;99.90
21648;DHT22;10985;54.182;7.890;2023-07-02T13:05:55;22.20;99.90
21648;DHT22;10985;54.182;7.890;2023-07-02T13:08:20;22.10;99.90
21648;DHT22;10985;54.182;7.890;2023-07-02T13:10:46;22.10;99.90
21648;DHT22;10985;54.182;7.890;2023-07-02T13:13:12;22.20;99.90
21648;DHT22;10985;54.182;7.890;2023-07-02T13:15:37;22.30;99.90
21648;DHT22;10985;54.182;7.890;2023-07-02T13:18:04;22.40;99.90
21648;DHT22;10985;54.182;7.890;2023-07-02T13:20:29;22.40;99.90
21648;DHT22;10985;54.182;7.890;2023-07-02T13:22:55;22.30;99.90
21648;DHT22;10985;54.182;7.890;2023-07-02T13:25:21;22.30;99.90
21648;DHT22;10985;54.182;7.890;2023-07-02T13:27:46;22.20;99.90
21648;DHT22;10985;54.182;7.890;2023-07-02T13:30:12;22.00;99.90
21648;DHT22;10985;54.182;7.890;2023-07-02T13:32:37;22.00;99.90
21648;DHT22;10985;54.182;7.890;2023-07-02T13:35:03;21.80;99.90
21648;DHT22;10985;54.182;7.890;2023-07-02T13:37:29;21.60;99.90
21648;DHT22;10985;54.182;7.890;2023-07-02T13:39:54;21.60;99.90
21648;DHT22;10985;54.182;7.890;2023-07-02T13:42:20;21.50;99.90
21648;DHT22;10985;54.182;7.890;2023-07-02T13:44:45;21.40;99.90
21648;DHT22;10985;54.182;7.890;2023-07-02T13:47:11;21.30;99.90
21648;DHT22;10985;54.182;7.890;2023-07-02T13:49:37;21.30;99.90
21648;DHT22;10985;54.182;7.890;2023-07-02T13:52:02;21.20;99.90
21648;DHT22;10985;54.182;7.890;2023-07-02T13:54:28;21.10;99.90
21648;DHT22;10985;54.182;7.890;2023-07-02T13:56:55;21.00;99.90
21648;DHT22;10985;54.182;7.890;2023-07-02T13:59:20;20.90;99.90
21648;DHT22;10985;54.182;7.890;2023-07-02T14:01:46;20.80;99.90
21648;DHT22;10985;54.182;7.890;2023-07-02T14:04:13;20.70;99.90
21648;DHT22;10985;54.182;7.890;2023-07-02T14:06:40;20.50;99.90
21648;DHT22;10985;54.182;7.890;2023-07-02T14:09:05;20.50;99.90
21648;DHT22;10985;54.182;7.890;2023-07-02T14:11:32;20.50;99.90
21648;DHT22;10985;54.182;7.890;2023-07-02T14:13:58;20.40;99.90
21648;DHT22;10985;54.182;7.890;2023-07-02T14:16:24;20.30;99.90
21648;DHT22;10985;54.182;7.890;2023-07-02T14:18:50;20.20;99.90
21648;DHT22;10985;54.182;7.890;2023-07-02T14:21:15;20.20;99.90
21648;DHT22;10985;54.182;7.890;2023-07-02T14:23:41;20.10;99.90
21648;DHT22;10985;54.182;7.890;2023-07-02T14:26:07;20.00;99.90
21648;DHT22;10985;54.182;7.890;2023-07-02T14:28:33;19.90;99.90
21648;DHT22;10985;54.182;7.890;2023-07-02T14:31:00;19.80;99.90
21648;DHT22;10985;54.182;7.890;2023-07-02T14:33:28;19.70;99.90
21648;DHT22;10985;54.182;7.890;2023-07-02T14:35:54;19.70;99.90
21648;DHT22;10985;54.182;7.890;2023-07-02T14:38:19;19.70;99.90
21648;DHT22;10985;54.182;7.890;2023-07-02T14:40:45;19.60;99.90
21648;DHT22;10985;54.182;7.890;2023-07-02T14:43:12;19.60;99.90
21648;DHT22;10985;54.182;7.890;2023-07-02T14:45:49;19.60;99.90
21648;DHT22;10985;54.182;7.890;2023-07-02T14:48:15;19.50;99.90
21648;DHT22;10985;54.182;7.890;2023-07-02T14:51:04;19.50;99.90
21648;DHT22;10985;54.182;7.890;2023-07-02T14:53:30;19.50;99.90
21648;DHT22;10985;54.182;7.890;2023-07-02T14:55:58;19.50;99.90
21648;DHT22;10985;54.182;7.890;2023-07-02T14:58:24;19.30;99.90
21648;DHT22;10985;54.182;7.890;2023-07-02T15:00:52;19.20;99.90
21648;DHT22;10985;54.182;7.890;2023-07-02T15:03:20;19.20;99.90
21648;DHT22;10985;54.182;7.890;2023-07-02T15:05:47;19.20;99.90
21648;DHT22;10985;54.182;7.890;2023-07-02T15:08:13;19.10;99.90
21648;DHT22;10985;54.182;7.890;2023-07-02T15:10:46;19.10;99.90
21648;DHT22;10985;54.182;7.890;2023-07-02T15:13:11;19.10;99.90
21648;DHT22;10985;54.182;7.890;2023-07-02T15:15:39;19.10;99.90
21648;DHT22;10985;54.182;7.890;2023-07-02T15:18:07;19.20;99.90
21648;DHT22;10985;54.182;7.890;2023-07-02T15:20:34;19.10;99.90
21648;DHT22;10985;54.182;7.890;2023-07-02T15:23:00;19.00;99.90
21648;DHT22;10985;54.182;7.890;2023-07-02T15:25:25;18.90;99.90
21648;DHT22;10985;54.182;7.890;2023-07-02T15:27:51;18.90;99.90
21648;DHT22;10985;54.182;7.890;2023-07-02T15:30:17;18.80;99.90